createdAt,value
2022-11-30T00:01:22.969Z,0.29
2022-11-30T00:03:55.900Z,0.29
2022-11-30T00:06:25.641Z,0.29
2022-11-30T00:08:54.707Z,0.28
2022-11-30T00:11:24.539Z,0.25
2022-11-30T00:13:53.393Z,0.23
2022-11-30T00:16:22.375Z,0.23
2022-11-30T00:19:04.579Z,0.24
2022-11-30T00:21:33.008Z,0.21
2022-11-30T00:24:01.383Z,0.20
2022-11-30T00:26:29.725Z,0.19
2022-11-30T00:28:58.159Z,0.18
2022-11-30T00:31:26.521Z,0.19
2022-11-30T00:33:54.941Z,0.21
2022-11-30T00:36:23.824Z,0.21
2022-11-30T00:38:52.426Z,0.19
2022-11-30T00:41:21.118Z,0.18
2022-11-30T00:43:49.582Z,0.18
2022-11-30T00:46:18.119Z,0.19
2022-11-30T00:49:08.011Z,0.19
2022-11-30T00:51:36.765Z,0.17
2022-11-30T00:54:05.301Z,0.16
2022-11-30T00:56:33.667Z,0.17
2022-11-30T00:59:01.944Z,0.17
2022-11-30T01:01:31.795Z,0.08
2022-11-30T01:04:00.174Z,0.01
2022-11-30T01:06:28.939Z,-0.02
2022-11-30T01:08:59.149Z,-0.03
2022-11-30T01:11:30.611Z,-0.06
2022-11-30T01:14:00.467Z,-0.09
2022-11-30T01:16:31.798Z,-0.13
2022-11-30T01:19:00.854Z,-0.13
2022-11-30T01:21:29.867Z,-0.15
2022-11-30T01:23:58.485Z,-0.21
2022-11-30T01:26:26.948Z,-0.26
2022-11-30T01:28:56.528Z,-0.27
2022-11-30T01:31:25.736Z,-0.26
2022-11-30T01:33:55.794Z,-0.27
2022-11-30T01:36:26.410Z,-0.26
2022-11-30T01:38:57.723Z,-0.25
2022-11-30T01:41:29.574Z,-0.27
2022-11-30T01:44:06.787Z,-0.29
2022-11-30T01:46:47.520Z,-0.33
2022-11-30T01:49:47.638Z,-0.36
2022-11-30T01:52:22.806Z,-0.41
2022-11-30T01:55:02.039Z,-0.42
2022-11-30T01:57:41.281Z,-0.47
2022-11-30T02:00:12.549Z,-0.51
2022-11-30T02:02:46.913Z,-0.55
2022-11-30T02:05:17.614Z,-0.58
2022-11-30T02:07:46.288Z,-0.60
2022-11-30T02:10:18.251Z,-0.61
2022-11-30T02:13:14.027Z,-0.66
2022-11-30T02:15:53.151Z,-0.72
2022-11-30T02:18:49.872Z,-0.74
2022-11-30T02:21:40.542Z,-0.76
2022-11-30T02:24:17.797Z,-0.76
2022-11-30T02:27:03.926Z,-0.76
2022-11-30T02:29:38.604Z,-0.79
2022-11-30T02:32:09.742Z,-0.82
2022-11-30T02:34:40.961Z,-0.82
2022-11-30T02:37:12.732Z,-0.83
2022-11-30T02:39:41.203Z,-0.82
2022-11-30T02:42:13.087Z,-0.83
2022-11-30T02:44:45.823Z,-0.87
2022-11-30T02:47:35.278Z,-0.89
2022-11-30T02:50:33.556Z,-0.90
2022-11-30T02:53:02.463Z,-0.95
2022-11-30T02:55:32.251Z,-1.01
2022-11-30T02:58:00.656Z,-1.05
2022-11-30T03:00:29.118Z,-1.09
2022-11-30T03:02:57.510Z,-1.13
2022-11-30T03:05:26.002Z,-1.17
2022-11-30T03:07:54.470Z,-1.19
2022-11-30T03:10:22.856Z,-1.21
2022-11-30T03:12:51.454Z,-1.22
2022-11-30T03:15:19.842Z,-1.22
2022-11-30T03:17:48.137Z,-1.21
2022-11-30T03:20:16.569Z,-1.22
2022-11-30T03:22:44.907Z,-1.21
2022-11-30T03:25:13.226Z,-1.19
2022-11-30T03:27:41.557Z,-1.17
2022-11-30T03:30:10.410Z,-1.15
2022-11-30T03:32:38.749Z,-1.17
2022-11-30T03:35:07.360Z,-1.22
2022-11-30T03:37:35.668Z,-1.27
2022-11-30T03:40:04.783Z,-1.31
2022-11-30T03:42:33.074Z,-1.31
2022-11-30T03:45:01.368Z,-1.33
2022-11-30T03:47:31.764Z,-1.34
2022-11-30T03:50:00.145Z,-1.33
2022-11-30T03:52:28.711Z,-1.31
2022-11-30T03:54:57.035Z,-1.29
2022-11-30T03:57:25.403Z,-1.28
2022-11-30T03:59:53.709Z,-1.27
2022-11-30T04:02:22.029Z,-1.26
2022-11-30T04:04:50.536Z,-1.27
2022-11-30T04:07:19.005Z,-1.29
2022-11-30T04:09:47.390Z,-1.29
2022-11-30T04:12:15.975Z,-1.29
2022-11-30T04:14:44.377Z,-1.32
2022-11-30T04:17:12.788Z,-1.33
2022-11-30T04:19:41.119Z,-1.34
2022-11-30T04:22:09.398Z,-1.35
2022-11-30T04:24:37.707Z,-1.39
2022-11-30T04:27:05.966Z,-1.42
2022-11-30T04:29:34.243Z,-1.45
2022-11-30T04:32:02.581Z,-1.47
2022-11-30T04:34:31.927Z,-1.47
2022-11-30T04:37:00.691Z,-1.48
2022-11-30T04:39:29.172Z,-1.50
2022-11-30T04:41:57.492Z,-1.48
2022-11-30T04:44:25.877Z,-1.44
2022-11-30T04:46:54.372Z,-1.42
2022-11-30T04:49:22.818Z,-1.45
2022-11-30T04:51:51.076Z,-1.49
2022-11-30T04:54:19.351Z,-1.50
2022-11-30T04:56:47.736Z,-1.51
2022-11-30T04:59:16.098Z,-1.52
2022-11-30T05:01:44.498Z,-1.52
2022-11-30T05:04:12.942Z,-1.48
2022-11-30T05:06:41.250Z,-1.47
2022-11-30T05:09:10.408Z,-1.43
2022-11-30T05:11:38.695Z,-1.38
2022-11-30T05:14:07.114Z,-1.36
2022-11-30T05:16:35.417Z,-1.40
2022-11-30T05:19:03.970Z,-1.45
2022-11-30T05:21:32.565Z,-1.48
2022-11-30T05:24:01.285Z,-1.50
2022-11-30T05:26:29.551Z,-1.52
2022-11-30T05:28:57.848Z,-1.51
2022-11-30T05:31:26.273Z,-1.55
2022-11-30T05:33:54.628Z,-1.61
2022-11-30T05:36:23.140Z,-1.65
2022-11-30T05:38:51.355Z,-1.66
2022-11-30T05:41:19.648Z,-1.63
2022-11-30T05:43:50.928Z,-1.62
2022-11-30T05:46:19.441Z,-1.61
2022-11-30T05:48:59.929Z,-1.61
2022-11-30T05:51:28.290Z,-1.65
2022-11-30T05:53:56.634Z,-1.67
2022-11-30T05:56:25.364Z,-1.70
2022-11-30T05:58:53.725Z,-1.73
2022-11-30T06:01:24.568Z,-1.75
2022-11-30T06:03:53.429Z,-1.77
2022-11-30T06:06:22.291Z,-1.80
2022-11-30T06:08:50.727Z,-1.80
2022-11-30T06:11:19.090Z,-1.78
2022-11-30T06:13:47.362Z,-1.76
2022-11-30T06:16:15.762Z,-1.74
2022-11-30T06:18:44.060Z,-1.75
2022-11-30T06:21:12.640Z,-1.76
2022-11-30T06:23:40.995Z,-1.79
2022-11-30T06:26:12.212Z,-1.80
2022-11-30T06:28:45.322Z,-1.81
2022-11-30T06:31:16.981Z,-1.82
2022-11-30T06:33:45.294Z,-1.84
2022-11-30T06:36:13.550Z,-1.85
2022-11-30T06:38:41.727Z,-1.86
2022-11-30T06:41:12.711Z,-1.86
2022-11-30T06:43:41.052Z,-1.86
2022-11-30T06:46:09.827Z,-1.84
2022-11-30T06:48:39.231Z,-1.82
2022-11-30T06:51:11.229Z,-1.81
2022-11-30T06:53:44.766Z,-1.79
2022-11-30T06:56:13.324Z,-1.76
2022-11-30T06:58:42.478Z,-1.75
2022-11-30T07:01:14.039Z,-1.73
2022-11-30T07:03:42.739Z,-1.75
2022-11-30T07:06:14.883Z,-1.78
2022-11-30T07:08:44.047Z,-1.82
2022-11-30T07:11:13.100Z,-1.85
2022-11-30T07:13:41.480Z,-1.86
2022-11-30T07:16:12.019Z,-1.85
2022-11-30T07:18:40.416Z,-1.83
2022-11-30T07:21:10.347Z,-1.82
2022-11-30T07:23:57.435Z,-1.82
2022-11-30T07:26:26.198Z,-1.81
2022-11-30T07:28:55.638Z,-1.80
2022-11-30T07:31:33.074Z,-1.79
2022-11-30T07:34:08.034Z,-1.78
2022-11-30T07:36:37.317Z,-1.78
2022-11-30T07:39:05.990Z,-1.78
2022-11-30T07:41:35.417Z,-1.79
2022-11-30T07:44:08.644Z,-1.77
2022-11-30T07:46:38.477Z,-1.74
2022-11-30T07:49:09.118Z,-1.72
2022-11-30T07:51:38.621Z,-1.73
2022-11-30T07:54:07.383Z,-1.72
2022-11-30T07:56:37.192Z,-1.72
2022-11-30T07:59:06.000Z,-1.73
2022-11-30T08:01:34.949Z,-1.67
2022-11-30T08:04:04.333Z,-1.63
2022-11-30T08:06:33.200Z,-1.59
2022-11-30T08:09:04.381Z,-1.57
2022-11-30T08:11:35.130Z,-1.55
2022-11-30T08:14:04.674Z,-1.50
2022-11-30T08:16:38.475Z,-1.50
2022-11-30T08:19:06.731Z,-1.50
2022-11-30T08:21:35.265Z,-1.52
2022-11-30T08:24:03.682Z,-1.51
2022-11-30T08:26:34.517Z,-1.51
2022-11-30T08:29:02.866Z,-1.50
2022-11-30T08:31:36.337Z,-1.47
2022-11-30T08:34:11.157Z,-1.41
2022-11-30T08:36:40.746Z,-1.40
2022-11-30T08:39:11.847Z,-1.37
2022-11-30T08:41:40.146Z,-1.35
2022-11-30T08:44:08.602Z,-1.31
2022-11-30T08:46:53.669Z,-1.27
2022-11-30T08:49:24.747Z,-1.26
2022-11-30T08:54:46.600Z,-1.26
2022-11-30T08:57:17.813Z,-1.28
2022-11-30T08:59:46.420Z,-1.26
2022-11-30T09:02:19.955Z,-1.25
2022-11-30T09:05:09.443Z,-1.24
2022-11-30T09:07:41.166Z,-1.29
2022-11-30T09:10:09.914Z,-1.30
2022-11-30T09:12:41.951Z,-1.30
2022-11-30T09:15:10.520Z,-1.26
2022-11-30T09:17:38.895Z,-1.18
2022-11-30T09:20:08.136Z,-1.12
2022-11-30T09:22:36.510Z,-1.08
2022-11-30T09:25:05.127Z,-1.10
2022-11-30T09:27:33.603Z,-1.10
2022-11-30T09:30:02.655Z,-1.10
2022-11-30T09:32:39.932Z,-1.12
2022-11-30T09:35:12.809Z,-1.14
2022-11-30T09:37:41.791Z,-1.10
2022-11-30T09:40:12.129Z,-1.06
2022-11-30T09:43:12.600Z,-1.05
2022-11-30T09:45:56.933Z,-1.08
2022-11-30T09:48:27.347Z,-1.07
2022-11-30T09:51:01.134Z,-1.08
2022-11-30T09:53:39.031Z,-1.14
2022-11-30T09:56:20.569Z,-1.20
2022-11-30T09:58:55.866Z,-1.26
2022-11-30T10:01:24.417Z,-1.26
2022-11-30T10:03:52.830Z,-1.24
2022-11-30T10:06:46.030Z,-1.20
2022-11-30T10:09:32.977Z,-1.14
2022-11-30T10:12:20.228Z,-1.11
2022-11-30T10:15:04.602Z,-1.09
2022-11-30T10:18:20.799Z,-1.05
2022-11-30T10:20:49.078Z,-1.01
2022-11-30T10:23:25.826Z,-0.97
2022-11-30T10:25:58.855Z,-1.00
2022-11-30T10:28:51.259Z,-1.00
2022-11-30T10:31:27.086Z,-1.02
2022-11-30T10:34:02.916Z,-1.05
2022-11-30T10:36:40.036Z,-1.08
2022-11-30T10:39:26.807Z,-1.05
2022-11-30T10:42:23.528Z,-1.01
2022-11-30T10:45:04.235Z,-0.95
2022-11-30T10:47:37.472Z,-0.94
2022-11-30T10:50:08.079Z,-1.00
2022-11-30T10:52:45.418Z,-1.11
2022-11-30T10:55:18.959Z,-1.21
2022-11-30T10:57:50.152Z,-1.29
2022-11-30T11:00:18.934Z,-1.33
2022-11-30T11:02:51.996Z,-1.36
2022-11-30T11:05:20.540Z,-1.38
2022-11-30T11:08:02.741Z,-1.39
2022-11-30T11:10:40.552Z,-1.37
2022-11-30T11:13:18.025Z,-1.36
2022-11-30T11:16:00.960Z,-1.34
2022-11-30T11:18:31.658Z,-1.36
2022-11-30T11:21:14.866Z,-1.38
2022-11-30T11:23:44.981Z,-1.39
2022-11-30T11:26:32.032Z,-1.39
2022-11-30T11:29:01.475Z,-1.36
2022-11-30T11:31:41.293Z,-1.35
2022-11-30T11:34:26.730Z,-1.33
2022-11-30T11:37:21.530Z,-1.29
2022-11-30T11:39:59.978Z,-1.26
2022-11-30T11:42:32.467Z,-1.22
2022-11-30T11:45:02.821Z,-1.18
2022-11-30T11:47:45.308Z,-1.15
2022-11-30T11:50:13.580Z,-1.11
2022-11-30T11:52:41.970Z,-1.08
2022-11-30T11:55:17.701Z,-1.07
2022-11-30T11:57:55.147Z,-1.07
2022-11-30T12:00:25.675Z,-1.06
2022-11-30T12:03:23.480Z,-1.05
2022-11-30T12:06:00.726Z,-1.03
2022-11-30T12:08:58.093Z,-1.04
2022-11-30T12:11:46.360Z,-1.06
2022-11-30T12:14:17.166Z,-1.03
2022-11-30T12:17:15.719Z,-1.05
2022-11-30T12:19:56.066Z,-1.12
2022-11-30T12:22:54.822Z,-1.18
2022-11-30T12:25:31.407Z,-1.20
2022-11-30T12:28:17.195Z,-1.23
2022-11-30T12:31:15.283Z,-1.28
2022-11-30T12:34:06.373Z,-1.31
2022-11-30T12:36:58.910Z,-1.26
2022-11-30T12:40:09.676Z,-1.24
2022-11-30T12:42:47.987Z,-1.21
2022-11-30T12:45:40.229Z,-1.20
2022-11-30T12:48:22.213Z,-1.21
2022-11-30T12:51:13.928Z,-1.19
2022-11-30T12:54:09.766Z,-1.22
2022-11-30T12:56:57.196Z,-1.29
2022-11-30T12:59:40.239Z,-1.32
2022-11-30T13:02:42.031Z,-1.34
2022-11-30T13:05:15.884Z,-1.32
2022-11-30T13:07:53.426Z,-1.32
2022-11-30T13:10:28.634Z,-1.34
2022-11-30T13:12:58.903Z,-1.36
2022-11-30T13:15:34.570Z,-1.35
2022-11-30T13:18:04.031Z,-1.36
2022-11-30T13:20:45.589Z,-1.36
2022-11-30T13:23:41.804Z,-1.38
2022-11-30T13:26:37.003Z,-1.37
2022-11-30T13:29:24.892Z,-1.34
2022-11-30T13:32:07.490Z,-1.33
2022-11-30T13:34:35.812Z,-1.34
2022-11-30T13:37:05.938Z,-1.35
2022-11-30T13:39:56.450Z,-1.34
2022-11-30T13:42:42.276Z,-1.31
2022-11-30T13:45:13.268Z,-1.28
2022-11-30T13:47:53.107Z,-1.26
2022-11-30T13:50:30.164Z,-1.24
2022-11-30T13:53:01.966Z,-1.23
2022-11-30T13:55:36.056Z,-1.25
2022-11-30T13:58:07.090Z,-1.25
2022-11-30T14:00:35.539Z,-1.25
2022-11-30T14:03:21.393Z,-1.24
2022-11-30T14:05:54.572Z,-1.22
2022-11-30T14:08:22.935Z,-1.22
2022-11-30T14:10:55.828Z,-1.23
2022-11-30T14:13:30.218Z,-1.26
2022-11-30T14:16:01.494Z,-1.25
2022-11-30T14:18:32.635Z,-1.24
2022-11-30T14:21:15.333Z,-1.21
2022-11-30T14:23:53.384Z,-1.18
2022-11-30T14:26:26.052Z,-1.21
2022-11-30T14:29:16.998Z,-1.22
2022-11-30T14:31:48.092Z,-1.19
2022-11-30T14:34:20.407Z,-1.22
2022-11-30T14:36:53.348Z,-1.23
2022-11-30T14:39:26.170Z,-1.22
2022-11-30T14:41:55.115Z,-1.23
2022-11-30T14:44:23.546Z,-1.25
2022-11-30T14:46:52.190Z,-1.26
2022-11-30T14:49:23.603Z,-1.26
2022-11-30T14:52:02.762Z,-1.27
2022-11-30T14:54:47.402Z,-1.28
2022-11-30T14:57:54.968Z,-1.27
2022-11-30T15:00:23.802Z,-1.25
2022-11-30T15:02:53.259Z,-1.21
2022-11-30T15:05:27.598Z,-1.18
2022-11-30T15:07:56.237Z,-1.16
2022-11-30T15:10:30.208Z,-1.17
2022-11-30T15:12:59.548Z,-1.18
2022-11-30T15:15:30.234Z,-1.21
2022-11-30T15:18:14.847Z,-1.20
2022-11-30T15:20:49.678Z,-1.20
2022-11-30T15:23:18.544Z,-1.18
2022-11-30T15:26:01.467Z,-1.21
2022-11-30T15:28:35.249Z,-1.25
2022-11-30T15:31:13.272Z,-1.31
2022-11-30T15:33:45.710Z,-1.31
2022-11-30T15:36:31.501Z,-1.32
2022-11-30T15:39:08.489Z,-1.34
2022-11-30T15:41:37.089Z,-1.36
2022-11-30T15:44:05.907Z,-1.36
2022-11-30T15:46:41.404Z,-1.36
2022-11-30T15:49:18.726Z,-1.39
2022-11-30T15:51:54.515Z,-1.41
2022-11-30T15:54:49.344Z,-1.42
2022-11-30T15:57:18.080Z,-1.45
2022-11-30T16:00:06.368Z,-1.44
2022-11-30T16:02:37.392Z,-1.43
2022-11-30T16:05:20.359Z,-1.45
2022-11-30T16:07:56.682Z,-1.44
2022-11-30T16:10:30.711Z,-1.41
2022-11-30T16:12:59.184Z,-1.41
2022-11-30T16:15:33.514Z,-1.42
2022-11-30T16:18:07.698Z,-1.39
2022-11-30T16:20:36.471Z,-1.40
2022-11-30T16:23:06.653Z,-1.40
2022-11-30T16:25:36.240Z,-1.40
2022-11-30T16:28:05.948Z,-1.40
2022-11-30T16:30:35.831Z,-1.38
2022-11-30T16:33:04.614Z,-1.38
2022-11-30T16:35:39.383Z,-1.37
2022-11-30T16:38:09.048Z,-1.34
2022-11-30T16:40:39.278Z,-1.34
2022-11-30T16:43:11.423Z,-1.34
2022-11-30T16:45:41.269Z,-1.32
2022-11-30T16:48:10.549Z,-1.31
2022-11-30T16:50:39.699Z,-1.28
2022-11-30T16:53:17.536Z,-1.28
2022-11-30T16:55:46.868Z,-1.26
2022-11-30T16:58:15.486Z,-1.23
2022-11-30T17:00:44.650Z,-1.19
2022-11-30T17:03:21.678Z,-1.16
2022-11-30T17:05:50.181Z,-1.14
2022-11-30T17:08:24.568Z,-1.14
2022-11-30T17:10:54.708Z,-1.13
2022-11-30T17:13:23.219Z,-1.10
2022-11-30T17:15:51.933Z,-1.09
2022-11-30T17:18:23.308Z,-1.09
2022-11-30T17:20:52.292Z,-1.07
2022-11-30T17:23:21.508Z,-1.06
2022-11-30T17:25:50.985Z,-1.07
2022-11-30T17:28:19.946Z,-1.07
2022-11-30T17:30:49.221Z,-1.06
2022-11-30T17:33:18.118Z,-1.06
2022-11-30T17:35:47.488Z,-1.09
2022-11-30T17:38:16.826Z,-1.07
2022-11-30T17:40:46.017Z,-1.06
2022-11-30T17:43:15.839Z,-1.10
2022-11-30T17:45:44.895Z,-1.13
2022-11-30T17:48:14.916Z,-1.14
2022-11-30T17:50:44.528Z,-1.11
2022-11-30T17:53:17.966Z,-1.12
2022-11-30T17:55:47.260Z,-1.14
2022-11-30T17:58:16.124Z,-1.16
2022-11-30T18:00:46.349Z,-1.16
2022-11-30T18:03:15.172Z,-1.14
2022-11-30T18:05:44.564Z,-1.11
2022-11-30T18:08:14.275Z,-1.12
2022-11-30T18:10:46.561Z,-1.16
2022-11-30T18:13:15.536Z,-1.18
2022-11-30T18:15:45.400Z,-1.16
2022-11-30T18:18:13.826Z,-1.17
2022-11-30T18:20:43.267Z,-1.18
2022-11-30T18:23:12.094Z,-1.19
2022-11-30T18:25:43.380Z,-1.17
2022-11-30T18:28:12.503Z,-1.15
2022-11-30T18:30:42.476Z,-1.15
2022-11-30T18:33:11.828Z,-1.14
2022-11-30T18:35:41.354Z,-1.13
2022-11-30T18:38:10.798Z,-1.14
2022-11-30T18:40:40.279Z,-1.14
2022-11-30T18:43:09.941Z,-1.15
2022-11-30T18:45:40.476Z,-1.15
2022-11-30T18:48:11.827Z,-1.15
2022-11-30T18:50:43.293Z,-1.16
2022-11-30T18:53:18.102Z,-1.16
2022-11-30T18:55:48.198Z,-1.15
2022-11-30T18:58:20.090Z,-1.15
2022-11-30T19:00:48.920Z,-1.15
2022-11-30T19:03:18.509Z,-1.15
2022-11-30T19:05:49.091Z,-1.13
2022-11-30T19:08:18.107Z,-1.14
2022-11-30T19:10:47.651Z,-1.14
2022-11-30T19:13:17.609Z,-1.14
2022-11-30T19:15:46.562Z,-1.12
2022-11-30T19:18:23.135Z,-1.11
2022-11-30T19:20:53.990Z,-1.11
2022-11-30T19:23:26.981Z,-1.11
2022-11-30T19:26:02.099Z,-1.11
2022-11-30T19:28:33.116Z,-1.09
2022-11-30T19:31:23.927Z,-1.07
2022-11-30T19:33:55.650Z,-1.03
2022-11-30T19:36:30.884Z,-1.02
2022-11-30T19:39:01.488Z,-1.02
2022-11-30T19:41:31.119Z,-1.02
2022-11-30T19:44:04.753Z,-1.01
2022-11-30T19:46:35.380Z,-0.98
2022-11-30T19:49:19.800Z,-0.95
2022-11-30T19:51:49.775Z,-0.91
2022-11-30T19:54:19.703Z,-0.90
2022-11-30T19:56:50.282Z,-0.91
2022-11-30T19:59:20.085Z,-0.90
2022-11-30T20:01:50.004Z,-0.87
2022-11-30T20:04:19.849Z,-0.85
2022-11-30T20:06:49.538Z,-0.85
2022-11-30T20:09:19.832Z,-0.84
2022-11-30T20:11:54.668Z,-0.84
2022-11-30T20:14:24.510Z,-0.85
2022-11-30T20:16:53.987Z,-0.83
2022-11-30T20:19:26.013Z,-0.81
2022-11-30T20:21:55.471Z,-0.79
2022-11-30T20:24:26.758Z,-0.77
2022-11-30T20:26:57.419Z,-0.76
2022-11-30T20:29:28.070Z,-0.76
2022-11-30T20:32:01.060Z,-0.77
2022-11-30T20:34:43.598Z,-0.77
2022-11-30T20:37:24.199Z,-0.74
2022-11-30T20:39:54.790Z,-0.74
2022-11-30T20:42:25.310Z,-0.74
2022-11-30T20:44:56.428Z,-0.73
2022-11-30T20:47:27.010Z,-0.70
2022-11-30T20:49:58.770Z,-0.66
2022-11-30T20:52:27.900Z,-0.65
2022-11-30T20:54:57.399Z,-0.64
2022-11-30T20:57:26.777Z,-0.62
2022-11-30T20:59:56.438Z,-0.59
2022-11-30T21:02:27.944Z,-0.56
2022-11-30T21:04:56.881Z,-0.57
2022-11-30T21:07:26.209Z,-0.57
2022-11-30T21:09:55.678Z,-0.58
2022-11-30T21:12:25.409Z,-0.59
2022-11-30T21:14:54.671Z,-0.59
2022-11-30T21:17:24.303Z,-0.58
2022-11-30T21:19:51.449Z,-0.55
2022-11-30T21:22:20.172Z,-0.55
2022-11-30T21:24:50.288Z,-0.54
2022-11-30T21:27:20.795Z,-0.53
2022-11-30T21:29:49.774Z,-0.52
2022-11-30T21:32:18.280Z,-0.54
2022-11-30T21:34:46.892Z,-0.54
2022-11-30T21:37:15.475Z,-0.55
2022-11-30T21:39:43.868Z,-0.54
2022-11-30T21:42:12.263Z,-0.52
2022-11-30T21:44:40.576Z,-0.51
2022-11-30T21:47:09.407Z,-0.48
2022-11-30T21:49:38.873Z,-0.49
2022-11-30T21:52:07.242Z,-0.46
2022-11-30T21:54:35.621Z,-0.46
2022-11-30T21:57:04.127Z,-0.45
2022-11-30T21:59:32.418Z,-0.43
2022-11-30T22:02:00.878Z,-0.41
2022-11-30T22:04:29.415Z,-0.41
2022-11-30T22:06:57.873Z,-0.41
2022-11-30T22:09:26.194Z,-0.41
2022-11-30T22:11:55.813Z,-0.41
2022-11-30T22:14:24.544Z,-0.40
2022-11-30T22:16:52.949Z,-0.38
2022-11-30T22:19:21.296Z,-0.37
2022-11-30T22:21:50.467Z,-0.37
2022-11-30T22:24:19.243Z,-0.37
2022-11-30T22:26:49.473Z,-0.37
2022-11-30T22:29:22.983Z,-0.38
2022-11-30T22:31:54.001Z,-0.38
2022-11-30T22:34:22.474Z,-0.40
2022-11-30T22:36:50.716Z,-0.41
2022-11-30T22:39:21.312Z,-0.41
2022-11-30T22:41:55.068Z,-0.40
2022-11-30T22:44:26.018Z,-0.40
2022-11-30T22:46:54.574Z,-0.40
2022-11-30T22:49:26.733Z,-0.38
2022-11-30T22:51:55.397Z,-0.38
2022-11-30T22:54:24.043Z,-0.38
2022-11-30T22:56:53.469Z,-0.37
2022-11-30T22:59:21.889Z,-0.37
2022-11-30T23:01:51.857Z,-0.36
2022-11-30T23:04:23.069Z,-0.38
2022-11-30T23:06:52.037Z,-0.39
2022-11-30T23:09:22.882Z,-0.39
2022-11-30T23:11:52.588Z,-0.42
2022-11-30T23:14:20.997Z,-0.44
2022-11-30T23:16:49.562Z,-0.44
2022-11-30T23:19:18.502Z,-0.44
2022-11-30T23:21:47.214Z,-0.44
2022-11-30T23:24:22.649Z,-0.45
2022-11-30T23:26:51.272Z,-0.44
2022-11-30T23:29:19.752Z,-0.44
2022-11-30T23:31:48.753Z,-0.45
2022-11-30T23:34:21.804Z,-0.47
2022-11-30T23:36:50.684Z,-0.48
2022-11-30T23:39:20.022Z,-0.49
2022-11-30T23:41:48.718Z,-0.49
2022-11-30T23:44:17.285Z,-0.51
2022-11-30T23:46:46.230Z,-0.54
2022-11-30T23:49:14.884Z,-0.54
2022-11-30T23:51:43.467Z,-0.52
2022-11-30T23:54:11.853Z,-0.48
2022-11-30T23:56:40.303Z,-0.47
2022-11-30T23:59:08.831Z,-0.51
